Adair, Oklahoma
Current Conditions -  °F | °C
As of 3:35 PM on Sunday 21 Dec 2014 (Local Time) from KGCM Reporting Station
Scattered Clouds Scattered Clouds  
Wind Chill: 41°   Ceiling: Unl
Heat Index: 46°   Visibility: 10mi
Dew Point: 41°   Wind: 10mph
Humidity: 81%   Direction: 170°S
Pressure: 29.9"   Gusts: NA
Location:  36.44°N, 95.27°W
Report Text: KGCM 212135Z AUTO 17009KT 10SM SCT018 SCT120 08/05 A2990 RMK AO2
Loading
Personal Weather Stations






























Interactive Weather Map New forecast layout! Learn more

10-Day Weather Forecast

Advertisements
Track Severe Weather on mobile